createdAt,value
2023-01-13T00:01:13.971Z,2.10
2023-01-13T00:03:42.259Z,2.26
2023-01-13T00:06:13.482Z,2.18
2023-01-13T00:08:41.022Z,2.08
2023-01-13T00:11:09.747Z,1.99
2023-01-13T00:13:38.427Z,2.03
2023-01-13T00:16:07.973Z,1.98
2023-01-13T00:18:36.971Z,1.90
2023-01-13T00:21:06.077Z,1.91
2023-01-13T00:23:34.460Z,1.92
2023-01-13T00:26:06.987Z,1.86
2023-01-13T00:28:34.318Z,1.70
2023-01-13T00:31:12.534Z,1.64
2023-01-13T00:33:39.958Z,1.74
2023-01-13T00:36:08.412Z,1.75
2023-01-13T00:38:36.213Z,1.83
2023-01-13T00:41:53.483Z,1.80
2023-01-13T00:44:21.041Z,1.81
2023-01-13T00:46:48.308Z,1.72
2023-01-13T00:49:15.415Z,1.74
2023-01-13T00:51:42.777Z,1.78
2023-01-13T00:54:09.875Z,1.79
2023-01-13T00:56:41.248Z,1.87
2023-01-13T00:59:13.430Z,1.82
2023-01-13T01:01:41.596Z,1.84
2023-01-13T01:04:09.109Z,1.91
2023-01-13T01:06:36.206Z,1.99
2023-01-13T01:09:04.243Z,2.00
2023-01-13T01:11:32.525Z,2.09
2023-01-13T01:14:01.719Z,2.21
2023-01-13T01:16:30.310Z,2.11
2023-01-13T01:18:58.184Z,2.13
2023-01-13T01:21:26.483Z,2.09
2023-01-13T01:23:54.058Z,2.05
2023-01-13T01:26:24.403Z,1.99
2023-01-13T01:28:52.146Z,1.95
2023-01-13T01:31:25.366Z,1.97
2023-01-13T01:33:54.011Z,2.06
2023-01-13T01:36:22.199Z,2.08
2023-01-13T01:38:49.909Z,2.08
2023-01-13T01:41:25.059Z,2.08
2023-01-13T01:44:02.248Z,1.98
2023-01-13T01:46:38.109Z,1.99
2023-01-13T01:49:17.510Z,1.94
2023-01-13T01:52:13.641Z,1.98
2023-01-13T01:54:52.582Z,2.03
2023-01-13T01:57:23.967Z,2.03
2023-01-13T01:59:51.209Z,2.11
2023-01-13T02:02:18.768Z,2.11
2023-01-13T02:04:51.993Z,1.96
2023-01-13T02:07:21.436Z,1.97
2023-01-13T02:09:49.295Z,1.98
2023-01-13T02:12:32.352Z,2.00
2023-01-13T02:15:04.346Z,2.03
2023-01-13T02:17:52.811Z,2.05
2023-01-13T02:20:48.177Z,2.10
2023-01-13T02:23:40.032Z,2.12
2023-01-13T02:26:23.168Z,2.10
2023-01-13T02:29:46.729Z,2.14
2023-01-13T02:32:17.134Z,2.16
2023-01-13T02:35:17.887Z,2.23
2023-01-13T02:37:45.949Z,2.21
2023-01-13T02:40:26.919Z,2.28
2023-01-13T02:43:21.937Z,2.31
2023-01-13T02:46:03.251Z,2.41
2023-01-13T02:48:32.110Z,2.45
2023-01-13T02:51:03.643Z,2.42
2023-01-13T02:53:38.212Z,2.38
2023-01-13T02:56:06.621Z,2.48
2023-01-13T02:58:35.167Z,2.57
2023-01-13T03:01:02.400Z,2.46
2023-01-13T03:03:31.115Z,2.49
2023-01-13T03:06:05.602Z,2.63
2023-01-13T03:08:39.762Z,2.70
2023-01-13T03:11:10.847Z,2.90
2023-01-13T03:13:44.537Z,2.86
2023-01-13T03:16:15.027Z,2.94
2023-01-13T03:19:03.723Z,2.89
2023-01-13T03:21:38.904Z,2.79
2023-01-13T03:24:18.423Z,2.76
2023-01-13T03:26:49.824Z,2.68
2023-01-13T03:29:19.929Z,2.69
2023-01-13T03:31:56.735Z,2.67
2023-01-13T03:34:27.620Z,2.76
2023-01-13T03:36:57.709Z,2.87
2023-01-13T03:39:32.399Z,3.05
2023-01-13T03:42:09.078Z,3.09
2023-01-13T03:44:42.132Z,3.09
2023-01-13T03:47:12.553Z,2.95
2023-01-13T03:49:51.980Z,2.98
2023-01-13T03:52:24.402Z,2.89
2023-01-13T03:54:54.906Z,3.07
2023-01-13T03:57:26.910Z,3.19
2023-01-13T03:59:56.710Z,3.25
2023-01-13T04:02:39.361Z,3.06
2023-01-13T04:05:09.337Z,2.96
2023-01-13T04:07:39.374Z,2.89
2023-01-13T04:10:09.530Z,2.87
2023-01-13T04:13:01.030Z,3.11
2023-01-13T04:15:39.920Z,3.22
2023-01-13T04:18:27.792Z,3.15
2023-01-13T04:20:57.660Z,3.11
2023-01-13T04:23:24.989Z,3.04
2023-01-13T04:25:52.367Z,2.96
2023-01-13T04:28:20.525Z,2.94
2023-01-13T04:30:48.017Z,2.93
2023-01-13T04:33:16.245Z,3.00
2023-01-13T04:35:44.405Z,2.96
2023-01-13T04:38:14.078Z,2.92
2023-01-13T04:40:41.974Z,2.96
2023-01-13T04:43:09.391Z,2.96
2023-01-13T04:45:36.479Z,2.86
2023-01-13T04:48:03.674Z,2.87
2023-01-13T04:50:31.401Z,3.00
2023-01-13T04:52:58.568Z,2.91
2023-01-13T04:55:25.678Z,2.93
2023-01-13T04:57:53.340Z,2.89
2023-01-13T05:00:22.585Z,2.80
2023-01-13T05:02:50.955Z,2.84
2023-01-13T05:05:18.593Z,2.98
2023-01-13T05:07:45.737Z,3.13
2023-01-13T05:10:13.182Z,3.39
2023-01-13T05:12:59.325Z,3.50
2023-01-13T05:15:45.129Z,3.50
2023-01-13T05:18:13.041Z,3.45
2023-01-13T05:20:40.188Z,3.49
2023-01-13T05:23:25.913Z,3.40
2023-01-13T05:25:53.398Z,3.40
2023-01-13T05:28:20.623Z,3.50
2023-01-13T05:30:49.504Z,3.51
2023-01-13T05:33:18.840Z,3.69
2023-01-13T05:35:46.771Z,3.85
2023-01-13T05:38:14.586Z,3.90
2023-01-13T05:41:11.434Z,3.74
2023-01-13T05:43:38.519Z,3.52
2023-01-13T05:46:08.816Z,3.26
2023-01-13T05:48:38.727Z,3.16
2023-01-13T05:51:08.260Z,3.03
2023-01-13T05:53:35.841Z,2.95
2023-01-13T05:56:06.584Z,2.91
2023-01-13T05:58:34.490Z,2.86
2023-01-13T06:01:11.235Z,2.81
2023-01-13T06:03:38.645Z,2.81
2023-01-13T06:06:08.587Z,2.80
2023-01-13T06:08:36.520Z,2.94
2023-01-13T06:11:05.582Z,3.31
2023-01-13T06:13:32.684Z,3.67
2023-01-13T06:16:00.165Z,3.64
2023-01-13T06:18:27.775Z,3.72
2023-01-13T06:20:55.425Z,3.32
2023-01-13T06:23:23.082Z,3.14
2023-01-13T06:26:08.600Z,3.31
2023-01-13T06:28:36.203Z,3.36
2023-01-13T06:31:06.411Z,3.26
2023-01-13T06:33:36.921Z,3.23
2023-01-13T06:36:10.455Z,3.68
2023-01-13T06:38:41.054Z,3.93
2023-01-13T06:41:09.141Z,4.12
2023-01-13T06:43:36.501Z,4.07
2023-01-13T06:46:04.016Z,4.07
2023-01-13T06:48:34.980Z,3.98
2023-01-13T06:51:03.907Z,3.73
2023-01-13T06:53:31.651Z,3.82
2023-01-13T06:55:58.873Z,4.23
2023-01-13T06:58:26.108Z,4.28
2023-01-13T07:00:53.965Z,3.98
2023-01-13T07:03:21.487Z,3.81
2023-01-13T07:05:53.659Z,3.77
2023-01-13T07:08:22.477Z,3.74
2023-01-13T07:10:49.768Z,3.80
2023-01-13T07:13:35.438Z,3.79
2023-01-13T07:16:05.118Z,4.02
2023-01-13T07:18:33.356Z,3.94
2023-01-13T07:21:02.817Z,3.89
2023-01-13T07:23:31.966Z,3.83
2023-01-13T07:25:59.737Z,3.69
2023-01-13T07:28:28.377Z,3.71
2023-01-13T07:30:56.390Z,3.76
2023-01-13T07:33:23.866Z,3.79
2023-01-13T07:35:58.915Z,3.84
2023-01-13T07:38:27.363Z,4.06
2023-01-13T07:40:54.577Z,4.43
2023-01-13T07:43:33.709Z,4.97
2023-01-13T07:46:04.557Z,5.54
2023-01-13T07:48:33.770Z,5.09
2023-01-13T07:51:07.815Z,4.75
2023-01-13T07:53:35.588Z,5.01
2023-01-13T07:56:04.859Z,5.25
2023-01-13T07:58:33.913Z,5.75
2023-01-13T08:01:07.703Z,5.23
2023-01-13T08:03:35.170Z,4.90
2023-01-13T08:06:02.361Z,4.45
2023-01-13T08:08:29.422Z,4.55
2023-01-13T08:11:00.937Z,4.61
2023-01-13T08:13:28.068Z,4.72
2023-01-13T08:16:03.849Z,4.80
2023-01-13T08:18:32.378Z,5.04
2023-01-13T08:21:08.064Z,4.85
2023-01-13T08:23:35.945Z,4.80
2023-01-13T08:26:05.797Z,5.07
2023-01-13T08:28:32.962Z,4.96
2023-01-13T08:31:04.862Z,5.15
2023-01-13T08:33:32.481Z,5.24
2023-01-13T08:36:03.725Z,5.22
2023-01-13T08:38:31.461Z,5.32
2023-01-13T08:40:58.735Z,5.29
2023-01-13T08:43:26.104Z,5.46
2023-01-13T08:46:01.344Z,5.52
2023-01-13T08:48:31.448Z,5.39
2023-01-13T08:51:07.581Z,5.22
2023-01-13T08:53:35.112Z,5.42
2023-01-13T08:56:04.176Z,5.45
2023-01-13T08:58:31.344Z,5.31
2023-01-13T09:01:04.977Z,5.50
2023-01-13T09:03:32.713Z,5.30
2023-01-13T09:05:59.866Z,5.41
2023-01-13T09:08:27.039Z,5.19
2023-01-13T09:10:54.574Z,5.27
2023-01-13T09:13:24.535Z,5.25
2023-01-13T09:15:52.632Z,5.07
2023-01-13T09:18:20.029Z,5.16
2023-01-13T09:20:47.232Z,5.21
2023-01-13T09:23:14.359Z,5.33
2023-01-13T09:25:41.830Z,5.61
2023-01-13T09:28:09.021Z,5.63
2023-01-13T09:30:37.741Z,5.54
2023-01-13T09:33:23.713Z,5.34
2023-01-13T09:35:50.904Z,5.40
2023-01-13T09:38:18.406Z,5.61
2023-01-13T09:40:47.915Z,5.56
2023-01-13T09:43:38.460Z,5.64
2023-01-13T09:46:39.589Z,5.70
2023-01-13T09:49:11.087Z,5.59
2023-01-13T09:51:42.259Z,5.53
2023-01-13T09:54:38.102Z,5.77
2023-01-13T09:57:10.437Z,6.17
2023-01-13T09:59:38.222Z,6.00
2023-01-13T10:02:37.324Z,6.10
2023-01-13T10:05:10.562Z,6.08
2023-01-13T10:07:43.856Z,6.01
2023-01-13T10:10:17.136Z,5.85
2023-01-13T10:13:04.764Z,5.97
2023-01-13T10:15:32.220Z,6.29
2023-01-13T10:18:12.568Z,6.14
2023-01-13T10:20:56.024Z,6.12
2023-01-13T10:23:25.926Z,5.70
2023-01-13T10:26:21.036Z,5.73
2023-01-13T10:28:53.205Z,5.63
2023-01-13T10:31:22.319Z,5.62
2023-01-13T10:33:58.550Z,5.75
2023-01-13T10:36:26.009Z,5.63
2023-01-13T10:38:53.201Z,5.83
2023-01-13T10:41:24.127Z,5.93
2023-01-13T10:43:51.476Z,6.10
2023-01-13T10:46:20.475Z,6.47
2023-01-13T10:49:27.614Z,6.64
2023-01-13T10:51:55.011Z,6.89
2023-01-13T10:54:24.456Z,7.08
2023-01-13T10:57:24.419Z,7.30
2023-01-13T10:59:53.095Z,7.47
2023-01-13T11:02:27.202Z,7.74
2023-01-13T11:05:02.696Z,7.59
2023-01-13T11:07:40.538Z,7.65
2023-01-13T11:10:17.235Z,7.68
2023-01-13T11:12:53.853Z,7.59
2023-01-13T11:15:24.728Z,7.42
2023-01-13T11:18:00.544Z,7.49
2023-01-13T11:20:37.010Z,7.53
2023-01-13T11:23:22.796Z,7.56
2023-01-13T11:25:55.302Z,7.63
2023-01-13T11:28:38.248Z,7.49
2023-01-13T11:31:19.481Z,7.51
2023-01-13T11:34:17.758Z,7.93
2023-01-13T11:36:49.410Z,8.00
2023-01-13T11:39:26.524Z,7.97
2023-01-13T11:42:16.954Z,7.90
2023-01-13T11:45:05.574Z,8.08
2023-01-13T11:47:35.864Z,8.07
2023-01-13T11:50:03.250Z,7.88
2023-01-13T11:52:49.218Z,7.76
2023-01-13T11:55:54.671Z,7.80
2023-01-13T11:58:51.051Z,7.72
2023-01-13T12:01:32.021Z,7.89
2023-01-13T12:04:05.821Z,8.11
2023-01-13T12:06:34.884Z,8.24
2023-01-13T12:09:22.281Z,8.18
2023-01-13T12:12:22.201Z,8.01
2023-01-13T12:15:11.502Z,8.26
2023-01-13T12:17:48.927Z,8.19
2023-01-13T12:20:38.117Z,8.41
2023-01-13T12:23:13.726Z,8.14
2023-01-13T12:25:45.572Z,7.99
2023-01-13T12:28:44.419Z,8.26
2023-01-13T12:31:13.696Z,8.06
2023-01-13T12:33:45.414Z,8.21
2023-01-13T12:36:22.500Z,8.28
2023-01-13T12:38:53.201Z,8.51
2023-01-13T12:41:31.097Z,8.52
2023-01-13T12:44:17.140Z,8.39
2023-01-13T12:46:45.968Z,8.43
2023-01-13T12:49:24.598Z,8.35
2023-01-13T12:51:51.900Z,8.30
2023-01-13T12:54:33.964Z,8.45
2023-01-13T12:57:01.674Z,8.65
2023-01-13T12:59:28.783Z,8.67
2023-01-13T13:02:11.243Z,8.70
2023-01-13T13:04:48.465Z,8.56
2023-01-13T13:07:19.169Z,8.37
2023-01-13T13:09:52.396Z,8.23
2023-01-13T13:13:01.392Z,8.02
2023-01-13T13:15:34.132Z,7.76
2023-01-13T13:18:20.836Z,7.61
2023-01-13T13:20:54.573Z,7.64
2023-01-13T13:23:47.953Z,7.87
2023-01-13T13:26:26.335Z,7.88
2023-01-13T13:28:56.485Z,7.94
2023-01-13T13:31:41.026Z,7.87
2023-01-13T13:34:10.699Z,7.79
2023-01-13T13:37:00.623Z,7.74
2023-01-13T13:39:49.117Z,8.15
2023-01-13T13:42:39.417Z,8.30
2023-01-13T13:45:39.977Z,8.80
2023-01-13T13:48:27.211Z,8.84
2023-01-13T13:50:59.915Z,9.08
2023-01-13T13:53:30.399Z,9.20
2023-01-13T13:55:59.926Z,9.26
2023-01-13T13:58:35.454Z,9.06
2023-01-13T14:01:04.112Z,8.93
2023-01-13T14:03:34.596Z,8.85
2023-01-13T14:06:04.208Z,8.85
2023-01-13T14:08:36.986Z,8.41
2023-01-13T14:11:28.429Z,7.65
2023-01-13T14:14:07.233Z,7.91
2023-01-13T14:16:36.259Z,8.01
2023-01-13T14:19:03.919Z,7.97
2023-01-13T14:21:31.261Z,8.22
2023-01-13T14:24:01.303Z,8.31
2023-01-13T14:26:31.284Z,8.50
2023-01-13T14:29:00.633Z,8.50
2023-01-13T14:31:28.243Z,8.34
2023-01-13T14:33:57.616Z,8.21
2023-01-13T14:36:25.387Z,8.41
2023-01-13T14:39:04.624Z,8.39
2023-01-13T14:41:37.455Z,8.19
2023-01-13T14:44:32.484Z,8.38
2023-01-13T14:47:05.208Z,8.32
2023-01-13T14:49:36.831Z,8.52
2023-01-13T14:52:16.924Z,8.61
2023-01-13T14:54:45.218Z,8.39
2023-01-13T14:57:14.267Z,8.54
2023-01-13T14:59:57.347Z,8.39
2023-01-13T15:02:30.651Z,8.17
2023-01-13T15:05:24.304Z,8.27
2023-01-13T15:07:54.615Z,8.13
2023-01-13T15:10:25.391Z,8.22
2023-01-13T15:12:54.655Z,8.47
2023-01-13T15:15:33.414Z,8.53
2023-01-13T15:18:02.129Z,8.45
2023-01-13T15:20:29.422Z,8.62
2023-01-13T15:22:58.679Z,8.40
2023-01-13T15:25:31.936Z,8.75
2023-01-13T15:27:59.074Z,8.88
2023-01-13T15:30:27.829Z,8.92
2023-01-13T15:32:57.141Z,9.05
2023-01-13T15:35:26.042Z,8.81
2023-01-13T15:37:55.837Z,8.57
2023-01-13T15:40:30.684Z,8.36
2023-01-13T15:43:17.234Z,8.28
2023-01-13T15:46:04.554Z,8.36
2023-01-13T15:48:32.954Z,8.20
2023-01-13T15:51:03.711Z,8.12
2023-01-13T15:53:32.660Z,7.84
2023-01-13T15:56:00.389Z,7.62
2023-01-13T15:58:30.178Z,7.70
2023-01-13T16:00:57.785Z,7.59
2023-01-13T16:03:25.193Z,7.41
2023-01-13T16:05:52.296Z,7.14
2023-01-13T16:08:21.917Z,7.23
2023-01-13T16:10:49.886Z,7.29
2023-01-13T16:13:17.822Z,7.44
2023-01-13T16:15:47.968Z,7.35
2023-01-13T16:18:21.314Z,7.27
2023-01-13T16:20:52.812Z,7.18
2023-01-13T16:23:20.586Z,7.17
2023-01-13T16:25:47.858Z,7.20
2023-01-13T16:28:24.061Z,7.20
2023-01-13T16:30:52.108Z,7.35
2023-01-13T16:33:19.301Z,7.19
2023-01-13T16:36:10.325Z,7.09
2023-01-13T16:38:33.845Z,7.14
2023-01-13T16:41:01.085Z,7.26
2023-01-13T16:43:28.265Z,7.09
2023-01-13T16:45:55.770Z,7.01
2023-01-13T16:48:22.998Z,6.84
2023-01-13T16:50:50.183Z,6.72
2023-01-13T16:53:17.591Z,6.61
2023-01-13T16:55:44.952Z,6.40
2023-01-13T16:58:17.838Z,6.35
2023-01-13T17:00:46.968Z,6.22
2023-01-13T17:03:17.584Z,5.90
2023-01-13T17:05:49.454Z,5.85
2023-01-13T17:08:19.921Z,5.83
2023-01-13T17:10:47.577Z,5.70
2023-01-13T17:13:17.079Z,5.72
2023-01-13T17:15:45.646Z,5.82
2023-01-13T17:18:13.615Z,5.74
2023-01-13T17:20:41.384Z,5.58
2023-01-13T17:23:08.566Z,5.57
2023-01-13T17:25:36.031Z,5.51
2023-01-13T17:28:03.444Z,5.45
2023-01-13T17:30:30.519Z,5.44
2023-01-13T17:32:57.925Z,5.61
2023-01-13T17:35:25.440Z,5.62
2023-01-13T17:37:53.241Z,5.52
2023-01-13T17:40:20.930Z,5.28
2023-01-13T17:42:48.079Z,5.40
2023-01-13T17:45:16.307Z,5.44
2023-01-13T17:47:43.727Z,5.44
2023-01-13T17:50:10.917Z,5.42
2023-01-13T17:52:38.121Z,5.39
2023-01-13T17:55:05.891Z,5.41
2023-01-13T17:57:35.082Z,5.43
2023-01-13T18:00:03.286Z,5.34
2023-01-13T18:02:39.296Z,5.33
2023-01-13T18:05:06.925Z,5.41
2023-01-13T18:07:34.016Z,5.29
2023-01-13T18:10:01.161Z,5.20
2023-01-13T18:12:28.615Z,5.02
2023-01-13T18:14:55.722Z,5.11
2023-01-13T18:17:22.920Z,5.05
2023-01-13T18:20:08.991Z,5.15
2023-01-13T18:22:54.600Z,5.24
2023-01-13T18:25:40.459Z,5.26
2023-01-13T18:28:07.583Z,5.19
2023-01-13T18:30:35.058Z,5.41
2023-01-13T18:33:02.296Z,5.28
2023-01-13T18:35:30.122Z,5.22
2023-01-13T18:37:57.461Z,5.23
2023-01-13T18:40:24.611Z,5.37
2023-01-13T18:42:51.817Z,5.39
2023-01-13T18:45:29.904Z,5.40
2023-01-13T18:47:59.507Z,5.32
2023-01-13T18:50:28.151Z,5.26
2023-01-13T18:52:55.546Z,5.08
2023-01-13T18:55:23.059Z,5.17
2023-01-13T18:57:51.223Z,5.32
2023-01-13T19:00:20.384Z,5.43
2023-01-13T19:02:48.076Z,5.50
2023-01-13T19:05:15.483Z,5.39
2023-01-13T19:07:46.340Z,5.32
2023-01-13T19:10:13.462Z,5.31
2023-01-13T19:12:42.204Z,5.30
2023-01-13T19:15:09.964Z,5.28
2023-01-13T19:17:37.084Z,5.44
2023-01-13T19:20:05.204Z,5.62
2023-01-13T19:22:34.028Z,5.66
2023-01-13T19:25:01.889Z,5.58
2023-01-13T19:27:29.905Z,5.51
2023-01-13T19:30:04.008Z,5.63
2023-01-13T19:32:33.296Z,5.46
2023-01-13T19:35:01.022Z,5.46
2023-01-13T19:37:33.728Z,5.51
2023-01-13T19:40:01.300Z,5.53
2023-01-13T19:42:47.699Z,5.51
2023-01-13T19:45:28.258Z,5.60
2023-01-13T19:47:57.045Z,5.62
2023-01-13T19:50:25.076Z,5.56
2023-01-13T19:52:52.305Z,5.55
2023-01-13T19:55:19.847Z,5.41
2023-01-13T19:57:48.410Z,5.48
2023-01-13T20:00:18.334Z,5.62
2023-01-13T20:02:49.540Z,5.71
2023-01-13T20:05:21.044Z,5.86
2023-01-13T20:07:49.931Z,5.94
2023-01-13T20:10:18.897Z,5.96
2023-01-13T20:12:46.071Z,5.90
2023-01-13T20:15:13.665Z,5.92
2023-01-13T20:17:41.581Z,6.06
2023-01-13T20:20:10.620Z,5.98
2023-01-13T20:22:39.265Z,6.06
2023-01-13T20:25:07.070Z,6.18
2023-01-13T20:27:34.458Z,6.18
2023-01-13T20:30:01.895Z,6.17
2023-01-13T20:32:29.006Z,6.25
2023-01-13T20:34:56.136Z,6.14
2023-01-13T20:37:23.499Z,6.18
2023-01-13T20:39:50.720Z,6.19
2023-01-13T20:42:29.842Z,6.20
2023-01-13T20:45:01.236Z,6.27
2023-01-13T20:47:29.537Z,6.22
2023-01-13T20:49:56.857Z,6.22
2023-01-13T20:52:24.735Z,6.23
2023-01-13T20:54:51.954Z,6.10
2023-01-13T20:57:19.114Z,6.11
2023-01-13T20:59:46.641Z,6.21
2023-01-13T21:02:15.682Z,6.12
2023-01-13T21:04:43.433Z,6.16
2023-01-13T21:07:10.998Z,6.20
2023-01-13T21:09:38.172Z,6.06
2023-01-13T21:12:24.834Z,5.91
2023-01-13T21:15:11.149Z,5.93
2023-01-13T21:17:56.724Z,6.17
2023-01-13T21:20:24.082Z,5.97
2023-01-13T21:22:51.277Z,6.00
2023-01-13T21:25:18.999Z,5.96
2023-01-13T21:27:46.592Z,6.12
2023-01-13T21:30:15.445Z,6.11
2023-01-13T21:32:44.124Z,6.20
2023-01-13T21:35:13.283Z,6.23
2023-01-13T21:37:41.927Z,6.18
2023-01-13T21:40:11.015Z,6.19
2023-01-13T21:42:56.847Z,6.14
2023-01-13T21:45:59.430Z,6.21
2023-01-13T21:48:26.837Z,6.18
2023-01-13T21:50:53.904Z,5.80
2023-01-13T21:53:20.972Z,5.52
2023-01-13T21:55:51.264Z,5.32
2023-01-13T21:58:18.307Z,5.31
2023-01-13T22:00:45.494Z,5.35
2023-01-13T22:03:14.662Z,5.39
2023-01-13T22:05:41.940Z,5.28
2023-01-13T22:08:12.455Z,5.40
2023-01-13T22:10:57.158Z,5.52
2023-01-13T22:13:43.845Z,5.60
2023-01-13T22:16:14.469Z,5.64
2023-01-13T22:18:41.617Z,5.79
2023-01-13T22:21:08.698Z,5.91
2023-01-13T22:23:36.077Z,5.86
2023-01-13T22:26:04.361Z,5.66
2023-01-13T22:28:40.104Z,5.68
2023-01-13T22:31:15.102Z,5.73
2023-01-13T22:33:42.767Z,5.74
2023-01-13T22:36:10.333Z,5.83
2023-01-13T22:38:37.442Z,5.94
2023-01-13T22:41:06.747Z,6.00
2023-01-13T22:43:35.327Z,5.94
2023-01-13T22:46:06.276Z,5.85
2023-01-13T22:48:33.919Z,5.82
2023-01-13T22:51:08.913Z,5.78
2023-01-13T22:53:37.179Z,5.88
2023-01-13T22:56:04.931Z,5.98
2023-01-13T22:58:32.343Z,5.97
2023-01-13T23:01:30.456Z,5.91
2023-01-13T23:03:57.904Z,5.89
2023-01-13T23:06:27.048Z,6.07
2023-01-13T23:08:54.740Z,6.04
2023-01-13T23:11:24.669Z,6.04
2023-01-13T23:13:57.898Z,6.15
2023-01-13T23:16:25.159Z,6.23
2023-01-13T23:18:52.580Z,6.25
2023-01-13T23:21:25.973Z,6.35
2023-01-13T23:23:53.785Z,6.26
2023-01-13T23:26:21.419Z,6.29
2023-01-13T23:28:49.033Z,6.22
2023-01-13T23:31:19.482Z,6.32
2023-01-13T23:33:47.066Z,6.25
2023-01-13T23:36:23.364Z,6.42
2023-01-13T23:38:53.738Z,6.42
2023-01-13T23:41:23.639Z,6.39
2023-01-13T23:43:56.084Z,6.32
2023-01-13T23:46:23.467Z,6.33
2023-01-13T23:48:51.506Z,6.37
2023-01-13T23:51:21.232Z,6.48
2023-01-13T23:53:50.076Z,6.52
2023-01-13T23:56:22.889Z,6.49
2023-01-13T23:58:50.417Z,6.32
